createdAt,value
2023-05-03T00:01:01.865Z,2.40
2023-05-03T00:03:53.226Z,3.88
2023-05-03T00:06:20.100Z,1.77
2023-05-03T00:08:48.674Z,2.95
2023-05-03T00:11:17.742Z,8.73
2023-05-03T00:13:50.040Z,1.65
2023-05-03T00:16:20.556Z,2.25
2023-05-03T00:18:49.714Z,3.83
2023-05-03T00:21:18.532Z,2.13
2023-05-03T00:23:47.871Z,4.80
2023-05-03T00:26:20.499Z,2.00
2023-05-03T00:28:53.817Z,2.25
2023-05-03T00:31:23.145Z,2.92
2023-05-03T00:33:59.135Z,3.85
2023-05-03T00:36:37.049Z,2.55
2023-05-03T00:39:14.885Z,1.60
2023-05-03T00:41:46.816Z,2.92
2023-05-03T00:44:15.646Z,1.88
2023-05-03T00:46:45.334Z,4.63
2023-05-03T00:49:15.265Z,2.50
2023-05-03T00:51:44.135Z,2.10
2023-05-03T00:54:12.951Z,1.67
2023-05-03T00:56:51.028Z,2.30
2023-05-03T00:59:32.743Z,2.20
2023-05-03T01:02:01.518Z,2.63
2023-05-03T01:04:33.504Z,2.17
2023-05-03T01:07:33.824Z,3.75
2023-05-03T01:10:43.782Z,2.80
2023-05-03T01:13:33.611Z,2.90
2023-05-03T01:16:13.401Z,1.90
2023-05-03T01:18:49.901Z,3.08
2023-05-03T01:21:20.839Z,2.33
2023-05-03T01:24:04.912Z,2.30
2023-05-03T01:26:34.435Z,2.90
2023-05-03T01:29:03.253Z,1.25
2023-05-03T01:31:47.931Z,2.50
2023-05-03T01:34:36.128Z,2.15
2023-05-03T01:37:06.847Z,3.45
2023-05-03T01:40:05.544Z,1.80
2023-05-03T01:42:41.905Z,2.20
2023-05-03T01:45:14.172Z,1.42
2023-05-03T01:47:42.690Z,2.60
2023-05-03T01:50:11.836Z,3.28
2023-05-03T01:52:41.384Z,1.42
2023-05-03T01:55:10.597Z,1.73
2023-05-03T01:57:38.910Z,1.75
2023-05-03T02:00:07.721Z,2.05
2023-05-03T02:02:36.071Z,1.65
2023-05-03T02:05:14.439Z,3.17
2023-05-03T02:07:42.540Z,2.45
2023-05-03T02:12:45.549Z,2.33
2023-05-03T02:15:14.859Z,1.52
2023-05-03T02:17:45.050Z,2.08
2023-05-03T02:20:14.089Z,1.75
2023-05-03T02:22:48.296Z,1.35
2023-05-03T02:25:16.646Z,1.75
2023-05-03T02:27:48.124Z,1.60
2023-05-03T02:30:16.383Z,1.80
2023-05-03T02:32:44.812Z,2.33
2023-05-03T02:35:37.696Z,3.40
2023-05-03T02:38:04.398Z,2.95
2023-05-03T02:40:33.615Z,3.88
2023-05-03T02:43:03.960Z,2.35
2023-05-03T02:45:31.398Z,3.13
2023-05-03T02:48:01.713Z,4.43
2023-05-03T02:50:28.708Z,1.92
2023-05-03T02:52:55.377Z,2.88
2023-05-03T02:55:26.704Z,2.40
2023-05-03T02:57:55.436Z,2.00
2023-05-03T03:00:27.154Z,2.90
2023-05-03T03:02:55.318Z,3.90
2023-05-03T03:05:22.611Z,3.42
2023-05-03T03:07:52.126Z,2.38
2023-05-03T03:10:19.112Z,1.65
2023-05-03T03:12:54.861Z,1.15
2023-05-03T03:15:23.334Z,2.30
2023-05-03T03:17:50.895Z,1.77
2023-05-03T03:20:28.330Z,2.50
2023-05-03T03:22:55.938Z,3.38
2023-05-03T03:25:23.480Z,2.47
2023-05-03T03:27:50.633Z,3.08
2023-05-03T03:30:17.525Z,2.37
2023-05-03T03:32:45.657Z,1.87
2023-05-03T03:37:40.489Z,1.30
2023-05-03T03:40:08.179Z,1.73
2023-05-03T03:42:35.229Z,3.47
2023-05-03T03:45:02.000Z,2.30
2023-05-03T03:47:28.809Z,2.53
2023-05-03T03:49:56.309Z,2.17
2023-05-03T03:52:24.331Z,5.35
2023-05-03T03:54:52.510Z,2.63
2023-05-03T03:57:20.104Z,3.42
2023-05-03T03:59:47.131Z,3.85
2023-05-03T04:02:15.346Z,1.97
2023-05-03T04:04:45.229Z,3.90
2023-05-03T04:07:13.030Z,4.70
2023-05-03T04:09:39.969Z,1.95
2023-05-03T04:12:07.359Z,2.03
2023-05-03T04:14:34.572Z,2.83
2023-05-03T04:17:05.646Z,2.45
2023-05-03T04:19:34.087Z,1.23
2023-05-03T04:22:01.951Z,1.85
2023-05-03T04:24:30.928Z,3.22
2023-05-03T04:27:33.978Z,1.27
2023-05-03T04:30:26.385Z,2.90
2023-05-03T04:32:55.684Z,2.22
2023-05-03T04:35:23.052Z,3.60
2023-05-03T04:37:51.041Z,2.30
2023-05-03T04:40:20.616Z,2.22
2023-05-03T04:42:49.145Z,5.50
2023-05-03T04:45:15.879Z,2.63
2023-05-03T04:47:43.621Z,2.40
2023-05-03T04:52:38.740Z,2.30
2023-05-03T04:55:06.275Z,2.15
2023-05-03T04:57:34.581Z,3.53
2023-05-03T05:00:02.314Z,4.13
2023-05-03T05:02:29.774Z,1.15
2023-05-03T05:04:56.540Z,2.90
2023-05-03T05:07:23.696Z,2.25
2023-05-03T05:09:50.891Z,3.10
2023-05-03T05:12:18.320Z,2.22
2023-05-03T05:14:45.534Z,2.33
2023-05-03T05:17:12.998Z,2.58
2023-05-03T05:19:40.252Z,3.20
2023-05-03T05:22:07.061Z,1.88
2023-05-03T05:24:34.052Z,2.05
2023-05-03T05:27:01.990Z,2.00
2023-05-03T05:29:28.994Z,2.05
2023-05-03T05:31:55.976Z,1.40
2023-05-03T05:34:23.018Z,1.83
2023-05-03T05:36:50.809Z,2.80
2023-05-03T05:39:18.164Z,1.67
2023-05-03T05:41:45.512Z,1.75
2023-05-03T05:44:13.391Z,2.72
2023-05-03T05:49:07.406Z,2.45
2023-05-03T05:51:34.935Z,4.32
2023-05-03T05:54:02.853Z,3.38
2023-05-03T05:59:01.390Z,8.98
2023-05-03T06:01:29.222Z,8.43
2023-05-03T06:06:25.730Z,8.10
2023-05-03T06:11:21.885Z,9.18
2023-05-03T06:13:48.715Z,8.50
2023-05-03T06:16:17.113Z,2.90
2023-05-03T06:18:45.042Z,6.65
2023-05-03T06:21:13.312Z,2.63
2023-05-03T06:23:40.541Z,3.55
2023-05-03T06:26:07.612Z,3.65
2023-05-03T06:28:35.237Z,4.70
2023-05-03T06:31:05.419Z,2.05
2023-05-03T06:33:32.133Z,2.67
2023-05-03T06:35:59.569Z,3.60
2023-05-03T06:38:26.620Z,9.07
2023-05-03T06:40:53.490Z,3.97
2023-05-03T06:43:23.266Z,7.00
2023-05-03T06:45:53.379Z,7.28
2023-05-03T06:48:22.569Z,1.67
2023-05-03T06:50:49.726Z,2.63
2023-05-03T06:53:16.627Z,2.10
2023-05-03T06:55:45.195Z,3.50
2023-05-03T06:58:12.574Z,2.58
2023-05-03T07:00:40.116Z,1.80
2023-05-03T07:03:07.902Z,3.10
2023-05-03T07:08:02.219Z,3.63
2023-05-03T07:10:31.316Z,5.27
2023-05-03T07:12:58.639Z,4.85
2023-05-03T07:15:25.500Z,5.18
2023-05-03T07:17:52.260Z,7.22
2023-05-03T07:20:19.431Z,4.82
2023-05-03T07:22:46.683Z,3.67
2023-05-03T07:25:15.116Z,5.22
2023-05-03T07:27:44.971Z,3.25
2023-05-03T07:30:12.305Z,5.35
2023-05-03T07:32:39.560Z,5.30
2023-05-03T07:35:08.180Z,3.42
2023-05-03T07:37:35.156Z,4.88
2023-05-03T07:40:02.233Z,3.50
2023-05-03T07:42:29.900Z,3.15
2023-05-03T07:44:56.806Z,2.53
2023-05-03T07:47:23.915Z,3.55
2023-05-03T07:49:51.200Z,6.55
2023-05-03T07:52:18.281Z,6.30
2023-05-03T07:54:46.044Z,2.97
2023-05-03T07:57:19.140Z,3.42
2023-05-03T07:59:45.873Z,4.45
2023-05-03T08:02:13.839Z,2.90
2023-05-03T08:04:42.131Z,2.83
2023-05-03T08:07:11.274Z,4.43
2023-05-03T08:09:42.723Z,3.88
2023-05-03T08:12:09.592Z,3.13
2023-05-03T08:14:37.338Z,2.80
2023-05-03T08:17:06.884Z,1.88
2023-05-03T08:19:33.546Z,7.78
2023-05-03T08:22:00.411Z,2.95
2023-05-03T08:24:27.205Z,2.17
2023-05-03T08:26:53.988Z,1.92
2023-05-03T08:29:21.169Z,3.22
2023-05-03T08:31:48.069Z,2.88
2023-05-03T08:34:14.842Z,1.77
2023-05-03T08:36:41.672Z,3.53
2023-05-03T08:39:10.642Z,2.05
2023-05-03T08:41:39.662Z,2.47
2023-05-03T08:44:08.682Z,8.80
2023-05-03T08:46:39.342Z,13.27
2023-05-03T08:49:07.720Z,7.55
2023-05-03T08:51:35.645Z,3.22
2023-05-03T08:54:02.464Z,3.42
2023-05-03T08:56:33.572Z,3.60
2023-05-03T08:59:05.239Z,3.05
2023-05-03T09:01:32.221Z,3.20
2023-05-03T09:03:59.468Z,3.90
2023-05-03T09:06:26.598Z,3.53
2023-05-03T09:08:54.882Z,2.58
2023-05-03T09:11:28.721Z,3.08
2023-05-03T09:14:08.786Z,3.10
2023-05-03T09:16:36.144Z,4.15
2023-05-03T09:19:06.896Z,5.82
2023-05-03T09:21:34.323Z,1.48
2023-05-03T09:24:04.080Z,2.85
2023-05-03T09:26:34.066Z,2.42
2023-05-03T09:29:03.904Z,4.00
2023-05-03T09:31:32.931Z,3.95
2023-05-03T09:34:01.228Z,3.53
2023-05-03T09:36:28.371Z,4.47
2023-05-03T09:38:56.360Z,4.18
2023-05-03T09:41:30.993Z,3.17
2023-05-03T09:44:02.990Z,8.80
2023-05-03T09:46:33.596Z,3.40
2023-05-03T09:49:01.352Z,17.10
2023-05-03T09:51:32.098Z,12.20
2023-05-03T09:53:59.695Z,14.55
2023-05-03T09:58:54.565Z,22.50
2023-05-03T10:03:54.504Z,15.13
2023-05-03T10:06:24.411Z,18.20
2023-05-03T10:09:02.891Z,14.18
2023-05-03T10:11:30.356Z,11.40
2023-05-03T10:13:59.134Z,7.63
2023-05-03T10:16:38.120Z,6.55
2023-05-03T10:19:14.004Z,5.95
2023-05-03T10:22:14.458Z,4.30
2023-05-03T10:25:03.941Z,4.70
2023-05-03T10:27:50.376Z,3.33
2023-05-03T10:30:35.467Z,5.07
2023-05-03T10:33:25.289Z,12.65
2023-05-03T10:35:55.007Z,4.82
2023-05-03T10:38:30.747Z,3.65
2023-05-03T10:41:04.451Z,3.05
2023-05-03T10:43:31.459Z,7.10
2023-05-03T10:46:00.965Z,4.22
2023-05-03T10:48:30.070Z,3.80
2023-05-03T10:50:59.738Z,3.22
2023-05-03T10:53:38.359Z,3.33
2023-05-03T10:56:14.310Z,3.88
2023-05-03T10:58:48.493Z,1.92
2023-05-03T11:01:17.583Z,3.33
2023-05-03T11:03:51.840Z,2.35
2023-05-03T11:06:37.400Z,4.80
2023-05-03T11:09:07.019Z,15.48
2023-05-03T11:11:37.756Z,24.83
2023-05-03T11:14:05.934Z,20.73
2023-05-03T11:16:32.846Z,18.90
2023-05-03T11:19:00.562Z,28.67
2023-05-03T11:23:54.645Z,8.82
2023-05-03T11:26:28.357Z,13.30
2023-05-03T11:28:55.121Z,10.93
2023-05-03T11:31:22.922Z,12.47
2023-05-03T11:33:51.328Z,10.32
2023-05-03T11:36:18.482Z,4.97
2023-05-03T11:38:45.941Z,4.63
2023-05-03T11:41:17.154Z,2.10
2023-05-03T11:43:55.058Z,3.30
2023-05-03T11:46:32.009Z,3.83
2023-05-03T11:48:59.681Z,2.78
2023-05-03T11:51:28.503Z,3.47
2023-05-03T11:54:01.367Z,4.72
2023-05-03T11:56:35.662Z,3.38
2023-05-03T11:59:02.395Z,3.25
2023-05-03T12:01:30.258Z,2.87
2023-05-03T12:04:02.784Z,2.55
2023-05-03T12:06:34.010Z,2.58
2023-05-03T12:09:05.022Z,1.88
2023-05-03T12:11:43.455Z,2.60
2023-05-03T12:14:13.424Z,2.85
2023-05-03T12:16:52.356Z,2.67
2023-05-03T12:22:32.228Z,5.25
2023-05-03T12:24:59.247Z,3.00
2023-05-03T12:27:28.134Z,3.15
2023-05-03T12:29:57.183Z,4.20
2023-05-03T12:32:25.507Z,9.43
2023-05-03T12:34:57.845Z,7.43
2023-05-03T12:37:27.595Z,6.20
2023-05-03T12:40:11.756Z,6.63
2023-05-03T12:45:15.245Z,5.93
2023-05-03T12:47:44.644Z,6.30
2023-05-03T12:50:18.534Z,5.43
2023-05-03T12:52:46.273Z,3.95
2023-05-03T12:55:18.207Z,4.55
2023-05-03T12:57:56.444Z,2.30
2023-05-03T13:00:48.627Z,3.47
2023-05-03T13:03:32.478Z,4.63
2023-05-03T13:06:04.533Z,5.25
2023-05-03T13:11:06.460Z,4.35
2023-05-03T13:13:34.880Z,5.90
2023-05-03T13:16:03.742Z,5.15
2023-05-03T13:18:30.899Z,5.22
2023-05-03T13:20:57.837Z,5.65
2023-05-03T13:23:25.129Z,6.22
2023-05-03T13:25:54.317Z,5.75
2023-05-03T13:28:24.585Z,2.97
2023-05-03T13:30:51.582Z,3.63
2023-05-03T13:33:18.650Z,5.38
2023-05-03T13:35:47.058Z,3.97
2023-05-03T13:38:15.137Z,6.72
2023-05-03T13:40:42.315Z,2.85
2023-05-03T13:43:09.141Z,2.75
2023-05-03T13:45:36.059Z,6.25
2023-05-03T13:48:18.774Z,3.88
2023-05-03T13:50:47.478Z,4.47
2023-05-03T13:53:14.730Z,6.50
2023-05-03T13:55:41.729Z,2.47
2023-05-03T13:58:09.148Z,3.33
2023-05-03T14:00:36.320Z,7.22
2023-05-03T14:03:03.204Z,4.18
2023-05-03T14:05:30.645Z,10.90
2023-05-03T14:07:57.729Z,4.97
2023-05-03T14:10:25.315Z,4.10
2023-05-03T14:12:53.205Z,4.53
2023-05-03T14:15:20.345Z,3.47
2023-05-03T14:17:48.126Z,7.28
2023-05-03T14:20:17.656Z,8.00
2023-05-03T14:22:45.901Z,7.45
2023-05-03T14:25:13.026Z,4.72
2023-05-03T14:27:40.692Z,4.60
2023-05-03T14:32:34.766Z,5.05
2023-05-03T14:35:02.241Z,3.72
2023-05-03T14:37:29.269Z,2.63
2023-05-03T14:39:56.046Z,5.60
2023-05-03T14:42:22.806Z,2.83
2023-05-03T14:44:49.993Z,4.80
2023-05-03T14:47:17.204Z,4.85
2023-05-03T14:49:43.938Z,2.83
2023-05-03T14:52:14.933Z,2.95
2023-05-03T14:54:41.884Z,4.05
2023-05-03T14:57:13.100Z,4.53
2023-05-03T14:59:40.042Z,4.10
2023-05-03T15:02:08.192Z,4.43
2023-05-03T15:04:38.019Z,5.63
2023-05-03T15:07:09.406Z,4.03
2023-05-03T15:09:38.279Z,3.47
2023-05-03T15:12:15.533Z,3.97
2023-05-03T15:14:42.715Z,4.93
2023-05-03T15:17:09.749Z,5.47
2023-05-03T15:19:39.862Z,5.38
2023-05-03T15:22:07.252Z,4.88
2023-05-03T15:24:39.498Z,3.15
2023-05-03T15:27:06.669Z,4.13
2023-05-03T15:29:35.513Z,4.30
2023-05-03T15:32:02.984Z,9.30
2023-05-03T15:34:29.952Z,9.82
2023-05-03T15:36:56.856Z,5.60
2023-05-03T15:39:23.840Z,10.80
2023-05-03T15:41:50.832Z,13.80
2023-05-03T15:44:17.734Z,9.02
2023-05-03T15:46:47.796Z,33.30
2023-05-03T15:49:15.904Z,16.98
2023-05-03T15:51:44.786Z,22.80
2023-05-03T15:54:39.261Z,20.95
2023-05-03T15:57:21.594Z,10.73
2023-05-03T15:59:50.619Z,15.38
2023-05-03T16:02:18.034Z,9.23
2023-05-03T16:04:46.405Z,5.07
2023-05-03T16:07:15.702Z,7.78
2023-05-03T16:09:43.753Z,7.32
2023-05-03T16:12:11.386Z,6.18
2023-05-03T16:14:38.370Z,5.00
2023-05-03T16:17:06.140Z,6.03
2023-05-03T16:22:00.192Z,2.58
2023-05-03T16:24:28.925Z,2.13
2023-05-03T16:26:59.461Z,3.88
2023-05-03T16:29:26.627Z,3.10
2023-05-03T16:31:54.739Z,5.43
2023-05-03T16:34:26.503Z,4.57
2023-05-03T16:37:00.506Z,4.75
2023-05-03T16:39:28.276Z,3.70
2023-05-03T16:41:58.397Z,4.38
2023-05-03T16:44:26.866Z,5.18
2023-05-03T16:46:55.006Z,3.70
2023-05-03T16:49:26.506Z,8.00
2023-05-03T16:51:57.844Z,5.57
2023-05-03T16:54:25.102Z,5.13
2023-05-03T16:56:52.626Z,3.38
2023-05-03T16:59:20.140Z,2.97
2023-05-03T17:01:47.915Z,5.88
2023-05-03T17:04:15.062Z,3.88
2023-05-03T17:06:42.380Z,2.50
2023-05-03T17:09:10.854Z,4.85
2023-05-03T17:11:37.957Z,3.08
2023-05-03T17:14:05.424Z,5.10
2023-05-03T17:16:32.928Z,5.80
2023-05-03T17:19:00.554Z,6.85
2023-05-03T17:21:27.614Z,3.20
2023-05-03T17:23:54.625Z,4.85
2023-05-03T17:26:22.665Z,6.03
2023-05-03T17:28:50.085Z,5.13
2023-05-03T17:31:18.546Z,4.63
2023-05-03T17:33:46.557Z,4.70
2023-05-03T17:36:13.588Z,5.30
2023-05-03T17:38:43.127Z,4.73
2023-05-03T17:41:11.814Z,3.83
2023-05-03T17:43:39.993Z,3.80
2023-05-03T17:46:12.911Z,2.90
2023-05-03T17:48:47.497Z,3.28
2023-05-03T17:51:16.063Z,3.67
2023-05-03T17:53:46.342Z,14.05
2023-05-03T17:56:25.703Z,11.52
2023-05-03T17:58:54.268Z,4.50
2023-05-03T18:01:32.372Z,1.67
2023-05-03T18:04:03.436Z,7.80
2023-05-03T18:06:31.305Z,10.60
2023-05-03T18:11:50.948Z,5.85
2023-05-03T18:14:31.763Z,2.75
2023-05-03T18:16:59.802Z,2.95
2023-05-03T18:20:14.363Z,4.13
2023-05-03T18:22:55.270Z,5.15
2023-05-03T18:25:58.235Z,7.35
2023-05-03T18:28:25.436Z,14.05
2023-05-03T18:30:58.632Z,10.65
2023-05-03T18:33:29.646Z,9.85
2023-05-03T18:35:58.275Z,4.88
2023-05-03T18:38:25.896Z,2.97
2023-05-03T18:41:00.992Z,6.97
2023-05-03T18:43:28.701Z,8.63
2023-05-03T18:46:12.905Z,6.23
2023-05-03T18:48:59.334Z,7.57
2023-05-03T18:51:27.078Z,5.13
2023-05-03T18:53:55.332Z,3.72
2023-05-03T18:56:30.265Z,1.25
2023-05-03T18:58:57.152Z,2.10
2023-05-03T19:02:00.357Z,2.90
2023-05-03T19:04:56.344Z,2.50
2023-05-03T19:07:45.008Z,2.10
2023-05-03T19:10:16.509Z,3.03
2023-05-03T19:12:44.640Z,1.55
2023-05-03T19:15:26.669Z,3.90
2023-05-03T19:18:02.322Z,1.70
2023-05-03T19:20:48.922Z,2.08
2023-05-03T19:23:25.097Z,2.42
2023-05-03T19:25:53.798Z,3.75
2023-05-03T19:28:22.693Z,1.90
2023-05-03T19:30:54.269Z,3.80
2023-05-03T19:33:22.872Z,4.32
2023-05-03T19:35:50.804Z,4.75
2023-05-03T19:38:26.992Z,5.50
2023-05-03T19:40:59.454Z,6.18
2023-05-03T19:43:28.461Z,6.97
2023-05-03T19:46:10.269Z,5.22
2023-05-03T19:48:45.520Z,3.42
2023-05-03T19:51:21.543Z,2.78
2023-05-03T19:53:53.169Z,1.73
2023-05-03T19:56:36.763Z,2.63
2023-05-03T19:59:35.569Z,2.60
2023-05-03T20:01:54.922Z,1.48
2023-05-03T20:04:25.984Z,3.97
2023-05-03T20:06:57.849Z,4.97
2023-05-03T20:09:26.454Z,3.63
2023-05-03T20:12:19.697Z,3.67
2023-05-03T20:14:56.538Z,4.07
2023-05-03T20:17:32.877Z,1.65
2023-05-03T20:25:59.361Z,7.05
2023-05-03T20:28:32.471Z,4.13
2023-05-03T20:30:59.800Z,2.42
2023-05-03T20:33:28.316Z,3.55
2023-05-03T20:35:56.905Z,23.02
2023-05-03T20:38:25.683Z,51.38
2023-05-03T20:40:52.673Z,36.63
2023-05-03T20:43:24.405Z,15.25
2023-05-03T20:45:51.562Z,9.18
2023-05-03T20:48:18.896Z,8.77
2023-05-03T20:50:50.391Z,7.75
2023-05-03T20:53:19.112Z,4.63
2023-05-03T20:55:56.543Z,9.35
2023-05-03T20:58:23.460Z,6.63
2023-05-03T21:00:58.486Z,4.13
2023-05-03T21:03:27.692Z,2.33
2023-05-03T21:05:57.898Z,3.53
2023-05-03T21:08:28.957Z,2.45
2023-05-03T21:10:56.323Z,2.83
2023-05-03T21:13:25.040Z,3.05
2023-05-03T21:15:56.579Z,2.80
2023-05-03T21:18:25.050Z,1.90
2023-05-03T21:20:55.349Z,2.10
2023-05-03T21:23:25.004Z,2.15
2023-05-03T21:25:55.186Z,1.77
2023-05-03T21:28:33.816Z,3.78
2023-05-03T21:31:01.085Z,1.45
2023-05-03T21:33:28.356Z,2.67
2023-05-03T21:35:56.294Z,3.17
2023-05-03T21:38:24.407Z,3.25
2023-05-03T21:43:19.606Z,2.35
2023-05-03T21:45:48.529Z,2.00
2023-05-03T21:48:15.943Z,2.13
2023-05-03T21:50:51.469Z,4.55
2023-05-03T21:53:26.230Z,2.85
2023-05-03T21:56:13.783Z,2.72
2023-05-03T21:58:41.564Z,2.45
2023-05-03T22:01:08.705Z,2.78
2023-05-03T22:03:37.127Z,3.80
2023-05-03T22:06:04.086Z,2.00
2023-05-03T22:08:32.392Z,2.60
2023-05-03T22:11:01.078Z,3.78
2023-05-03T22:13:28.575Z,1.70
2023-05-03T22:15:55.415Z,2.90
2023-05-03T22:18:22.745Z,2.28
2023-05-03T22:20:49.394Z,2.05
2023-05-03T22:23:16.145Z,2.90
2023-05-03T22:25:43.617Z,1.98
2023-05-03T22:28:11.200Z,2.15
2023-05-03T22:30:38.383Z,3.10
2023-05-03T22:33:05.187Z,2.90
2023-05-03T22:35:32.065Z,2.17
2023-05-03T22:37:59.010Z,4.43
2023-05-03T22:40:25.868Z,2.70
2023-05-03T22:42:52.886Z,4.38
2023-05-03T22:45:20.162Z,4.10
2023-05-03T22:47:50.278Z,3.35
2023-05-03T22:50:17.098Z,1.80
2023-05-03T22:52:45.147Z,4.18
2023-05-03T22:57:39.581Z,3.35
2023-05-03T23:00:11.442Z,2.75
2023-05-03T23:02:38.724Z,2.05
2023-05-03T23:05:10.870Z,2.20
2023-05-03T23:07:44.653Z,2.67
2023-05-03T23:10:23.143Z,3.70
2023-05-03T23:12:50.590Z,2.97
2023-05-03T23:15:20.480Z,3.03
2023-05-03T23:17:54.147Z,1.77
2023-05-03T23:20:40.308Z,1.90
2023-05-03T23:23:09.276Z,2.65
2023-05-03T23:25:36.882Z,2.50
2023-05-03T23:28:04.297Z,2.70
2023-05-03T23:33:10.201Z,2.35
2023-05-03T23:35:42.542Z,1.65
2023-05-03T23:38:10.053Z,5.22
2023-05-03T23:40:37.794Z,3.60
2023-05-03T23:43:04.967Z,2.42
2023-05-03T23:45:38.893Z,3.25
2023-05-03T23:48:09.817Z,2.05
2023-05-03T23:50:38.943Z,1.67
2023-05-03T23:53:10.733Z,2.38
2023-05-03T23:55:38.915Z,2.80
2023-05-03T23:58:09.164Z,3.17
